الصفحة الرئيسية
METAR-TAF:

METAR-TAF

مطار :

كراكاس, فنزويلا

دائرة عرض: 10-36N, خط طول: 066-59W, ارتفاع: 43 متر

مراقبة الطقس الحالي

تاريخ ووقت الإصدار 51 دقيقة قبل الساعة 18:00UTC
ريح 6 عقدة من الشمال الشرقي
درجة الحرارة 29°درجة مئوية
الرطوبة 66%
ضغط 1008 hPa
الرؤية 10 كم أو أكثر
غيوم مفككة على ارتفاع 1600 قدم

METAR: SVMI 231800Z 05006KT 9999 BKN016 29/22 Q1008KT

زمن: 14:51 (18:51 UTC)

توقعات

تاريخ ووقت الإصدار 2ساعات و 51 دقيقة قبل الساعة 16:00UTC
التوقعات صالحة من23 الساعة 18 UTC إلى 24 الساعة 18 UTC
ريح 10 عقدة من الشرق/الشمال الشرقي
الرؤية 10 كم أو أكثر
غيوم متفرقة على ارتفاع 1600 قدم
غيوم مفككة على ارتفاع 10000 قدم
أصبح
من 23 الساعة 18 UTC إلى 23 الساعة 22 UTC
ريح 7 عقدة من الشرق
الرؤية: 9000 متر
غيوم مفككة على ارتفاع 1600 قدم
بالجوار, رذاذ

TAF: SVMI 231600Z 2318/2418 07010KT 9999 SCT016 BKN100 TX32/18Z TN24/09Z BECMG 2318/2322 09007KT 9000 VCDZ BKN016

أرصاد الطقس والتوقعات من أكثر من 4000 مطار (تقارير الطقس للمطار METAR والتنبؤ بالطقس بالمطارTAF).

المحطات المتاحة هي النقط الصفراء والحمراء على الخريطة.

حرك المؤشر فوق النقطة لمعرفة اسم المحطة.

ثم انقر لمعرفة أرصاد وتوقعات الطقس.

لتغيير الخارطة: اضغط على الأزرار الخضراء مع رمز الصليب الأسود للتكبير. على الزر الأخضر مع شرطة للتصغير، أو على الأسهم الخضراء للخرائط المجاورة.


METAR-TAF: